createdAt,value
2022-09-20T00:00:38.187Z,95348.25
2022-09-20T00:02:36.380Z,95354.72
2022-09-20T00:04:36.065Z,95355.88
2022-09-20T00:06:36.031Z,95357.19
2022-09-20T00:08:34.532Z,95360.56
2022-09-20T00:10:39.270Z,95356.81
2022-09-20T00:12:37.686Z,95360.41
2022-09-20T00:14:37.157Z,95363.88
2022-09-20T00:16:39.097Z,95366.50
2022-09-20T00:18:40.296Z,95358.50
2022-09-20T00:20:47.195Z,95359.44
2022-09-20T00:22:49.670Z,95358.03
2022-09-20T00:24:49.143Z,95356.22
2022-09-20T00:26:49.045Z,95353.59
2022-09-20T00:28:50.873Z,95353.75
2022-09-20T00:30:50.230Z,95346.34
2022-09-20T00:32:48.431Z,95350.69
2022-09-20T00:35:03.886Z,95343.63
2022-09-20T00:37:03.483Z,95352.00
2022-09-20T00:39:03.533Z,95349.84
2022-09-20T00:41:01.550Z,95357.50
2022-09-20T00:42:59.760Z,95353.09
2022-09-20T00:44:59.715Z,95350.09
2022-09-20T00:46:58.007Z,95344.31
2022-09-20T00:49:00.452Z,95355.53
2022-09-20T00:51:03.133Z,95357.59
2022-09-20T00:53:08.392Z,95361.94
2022-09-20T00:55:09.906Z,95361.00
2022-09-20T00:57:08.134Z,95367.50
2022-09-20T00:59:16.542Z,95363.78
2022-09-20T01:01:15.215Z,95362.97
2022-09-20T01:03:15.441Z,95369.75
2022-09-20T01:05:15.994Z,95365.78
2022-09-20T01:07:17.265Z,95357.50
2022-09-20T01:09:16.719Z,95359.63
2022-09-20T01:11:14.964Z,95355.09
2022-09-20T01:13:13.130Z,95353.16
2022-09-20T01:15:13.096Z,95358.66
2022-09-20T01:17:12.804Z,95364.31
2022-09-20T01:19:26.464Z,95374.63
2022-09-20T01:21:26.320Z,95366.03
2022-09-20T01:23:35.185Z,95365.44
2022-09-20T01:25:57.530Z,95356.03
2022-09-20T01:27:57.338Z,95354.00
2022-09-20T01:30:06.181Z,95354.00
2022-09-20T01:32:11.223Z,95350.50
2022-09-20T01:34:14.547Z,95351.59
2022-09-20T01:36:19.005Z,95343.59
2022-09-20T01:38:24.632Z,95356.38
2022-09-20T01:40:31.834Z,95348.09
2022-09-20T01:42:34.847Z,95352.53
2022-09-20T01:44:39.920Z,95356.44
2022-09-20T01:46:38.328Z,95355.47
2022-09-20T01:48:40.593Z,95358.34
2022-09-20T01:50:53.825Z,95366.38
2022-09-20T01:53:23.295Z,95370.38
2022-09-20T01:56:02.146Z,95377.06
2022-09-20T01:58:23.447Z,95370.06
2022-09-20T02:00:27.450Z,95364.13
2022-09-20T02:03:00.997Z,95362.19
2022-09-20T02:05:25.208Z,95359.31
2022-09-20T02:08:00.946Z,95347.78
2022-09-20T02:10:14.492Z,95344.97
2022-09-20T02:12:33.665Z,95340.47
2022-09-20T02:14:49.744Z,95336.06
2022-09-20T02:16:54.864Z,95334.16
2022-09-20T02:19:18.162Z,95332.38
2022-09-20T02:21:31.234Z,95335.59
2022-09-20T02:23:40.820Z,95344.91
2022-09-20T02:25:57.245Z,95342.97
2022-09-20T02:28:18.668Z,95337.41
2022-09-20T02:30:30.621Z,95345.75
2022-09-20T02:32:55.833Z,95343.84
2022-09-20T02:35:07.136Z,95347.66
2022-09-20T02:37:27.016Z,95346.00
2022-09-20T02:39:34.376Z,95341.59
2022-09-20T02:41:58.242Z,95349.47
2022-09-20T02:44:06.535Z,95353.03
2022-09-20T02:46:12.165Z,95346.09
2022-09-20T02:48:14.608Z,95354.56
2022-09-20T02:50:23.019Z,95355.66
2022-09-20T02:52:30.233Z,95363.75
2022-09-20T02:54:35.382Z,95350.38
2022-09-20T02:56:42.761Z,95357.44
2022-09-20T02:58:51.189Z,95344.88
2022-09-20T03:00:56.671Z,95352.63
2022-09-20T03:03:07.713Z,95355.13
2022-09-20T03:05:20.022Z,95359.69
2022-09-20T03:07:26.829Z,95353.97
2022-09-20T03:09:33.537Z,95353.97
2022-09-20T03:11:36.529Z,95356.25
2022-09-20T03:13:51.306Z,95351.34
2022-09-20T03:15:55.246Z,95349.69
2022-09-20T03:18:07.584Z,95354.22
2022-09-20T03:20:16.635Z,95360.66
2022-09-20T03:22:28.021Z,95370.69
2022-09-20T03:24:41.091Z,95372.78
2022-09-20T03:26:52.796Z,95375.38
2022-09-20T03:29:04.066Z,95369.66
2022-09-20T03:31:12.316Z,95379.31
2022-09-20T03:33:17.781Z,95372.50
2022-09-20T03:35:32.073Z,95376.56
2022-09-20T03:37:57.644Z,95380.03
2022-09-20T03:40:25.833Z,95390.88
2022-09-20T03:42:27.027Z,95384.19
2022-09-20T03:44:52.764Z,95380.59
2022-09-20T03:46:59.279Z,95384.84
2022-09-20T03:49:30.055Z,95382.13
2022-09-20T03:51:42.157Z,95387.38
2022-09-20T03:54:17.320Z,95388.41
2022-09-20T03:56:40.717Z,95390.69
2022-09-20T03:58:57.202Z,95386.03
2022-09-20T04:01:06.891Z,95387.09
2022-09-20T04:03:24.609Z,95392.34
2022-09-20T04:05:31.717Z,95380.66
2022-09-20T04:07:44.195Z,95385.53
2022-09-20T04:10:02.413Z,95394.09
2022-09-20T04:12:08.283Z,95404.16
2022-09-20T04:14:17.256Z,95406.78
2022-09-20T04:16:26.996Z,95391.47
2022-09-20T04:18:35.734Z,95402.34
2022-09-20T04:20:41.199Z,95414.72
2022-09-20T04:22:44.473Z,95413.66
2022-09-20T04:24:51.248Z,95417.13
2022-09-20T04:26:53.077Z,95412.13
2022-09-20T04:28:58.549Z,95409.41
2022-09-20T04:31:05.134Z,95408.13
2022-09-20T04:33:12.663Z,95407.19
2022-09-20T04:35:42.325Z,95413.97
2022-09-20T04:37:45.822Z,95410.63
2022-09-20T04:39:54.491Z,95405.94
2022-09-20T04:42:19.488Z,95407.00
2022-09-20T04:44:54.513Z,95413.19
2022-09-20T04:47:25.243Z,95413.88
2022-09-20T04:50:00.291Z,95405.50
2022-09-20T04:52:40.977Z,95412.41
2022-09-20T04:55:12.341Z,95423.09
2022-09-20T04:57:40.521Z,95413.66
2022-09-20T04:59:56.935Z,95416.72
2022-09-20T05:02:27.082Z,95406.28
2022-09-20T05:05:09.995Z,95414.28
2022-09-20T05:07:33.417Z,95412.31
2022-09-20T05:10:14.751Z,95414.38
2022-09-20T05:12:37.549Z,95420.59
2022-09-20T05:14:53.173Z,95426.31
2022-09-20T05:17:09.354Z,95431.44
2022-09-20T05:19:15.149Z,95432.06
2022-09-20T05:21:35.758Z,95430.63
2022-09-20T05:24:05.134Z,95438.88
2022-09-20T05:26:12.048Z,95431.38
2022-09-20T05:28:19.286Z,95426.31
2022-09-20T05:30:26.104Z,95431.09
2022-09-20T05:32:31.722Z,95430.16
2022-09-20T05:34:42.507Z,95430.69
2022-09-20T05:36:50.697Z,95434.16
2022-09-20T05:38:51.716Z,95441.31
2022-09-20T05:41:05.879Z,95433.56
2022-09-20T05:43:11.958Z,95427.91
2022-09-20T05:45:26.706Z,95423.50
2022-09-20T05:47:29.097Z,95423.13
2022-09-20T05:49:42.952Z,95422.97
2022-09-20T05:52:01.155Z,95422.72
2022-09-20T05:54:25.251Z,95419.97
2022-09-20T05:56:41.125Z,95423.38
2022-09-20T05:59:03.174Z,95426.28
2022-09-20T06:01:05.677Z,95429.69
2022-09-20T06:03:14.626Z,95426.19
2022-09-20T06:05:17.132Z,95425.81
2022-09-20T06:07:28.234Z,95425.00
2022-09-20T06:09:43.712Z,95431.81
2022-09-20T06:12:12.814Z,95432.72
2022-09-20T06:14:22.062Z,95430.59
2022-09-20T06:16:29.643Z,95449.16
2022-09-20T06:18:33.790Z,95433.69
2022-09-20T06:20:38.445Z,95433.03
2022-09-20T06:22:44.004Z,95433.94
2022-09-20T06:24:48.297Z,95427.47
2022-09-20T06:26:46.557Z,95428.88
2022-09-20T06:28:49.432Z,95423.03
2022-09-20T06:30:51.406Z,95424.38
2022-09-20T06:32:57.379Z,95426.56
2022-09-20T06:34:55.988Z,95423.31
2022-09-20T06:37:21.438Z,95424.16
2022-09-20T06:39:45.092Z,95426.13
2022-09-20T06:41:44.447Z,95419.91
2022-09-20T06:43:43.100Z,95421.63
2022-09-20T06:45:41.683Z,95427.25
2022-09-20T06:47:41.514Z,95422.59
2022-09-20T06:49:42.480Z,95423.81
2022-09-20T06:51:41.995Z,95413.78
2022-09-20T06:53:42.529Z,95421.03
2022-09-20T06:55:43.292Z,95424.47
2022-09-20T06:57:41.547Z,95428.28
2022-09-20T06:59:39.774Z,95428.25
2022-09-20T07:01:38.318Z,95427.78
2022-09-20T07:03:38.070Z,95438.16
2022-09-20T07:05:37.096Z,95436.81
2022-09-20T07:07:35.300Z,95444.78
2022-09-20T07:09:33.467Z,95442.97
2022-09-20T07:11:35.119Z,95436.00
2022-09-20T07:13:33.456Z,95436.75
2022-09-20T07:15:33.565Z,95438.06
2022-09-20T07:17:31.800Z,95437.47
2022-09-20T07:19:31.548Z,95438.78
2022-09-20T07:21:32.559Z,95449.16
2022-09-20T07:23:31.915Z,95446.44
2022-09-20T07:25:30.454Z,95442.19
2022-09-20T07:27:29.543Z,95443.81
2022-09-20T07:29:28.293Z,95442.56
2022-09-20T07:31:28.567Z,95437.22
2022-09-20T07:33:26.855Z,95440.47
2022-09-20T07:35:26.429Z,95439.03
2022-09-20T07:37:24.593Z,95446.31
2022-09-20T07:39:22.771Z,95442.97
2022-09-20T07:41:22.942Z,95442.56
2022-09-20T07:43:22.743Z,95431.72
2022-09-20T07:45:21.128Z,95432.34
2022-09-20T07:47:19.161Z,95430.78
2022-09-20T07:49:18.595Z,95420.47
2022-09-20T07:51:20.460Z,95427.75
2022-09-20T07:53:18.885Z,95419.28
2022-09-20T07:55:17.184Z,95425.84
2022-09-20T07:57:15.268Z,95425.84
2022-09-20T07:59:13.701Z,95418.38
2022-09-20T08:01:14.429Z,95419.56
2022-09-20T08:03:12.958Z,95420.75
2022-09-20T08:05:11.130Z,95414.78
2022-09-20T08:07:10.889Z,95421.34
2022-09-20T08:09:11.471Z,95424.59
2022-09-20T08:11:11.761Z,95429.63
2022-09-20T08:15:29.274Z,95421.75
2022-09-20T08:17:27.487Z,95419.44
2022-09-20T08:19:25.765Z,95415.78
2022-09-20T08:21:24.651Z,95417.28
2022-09-20T08:23:24.391Z,95418.75
2022-09-20T08:25:22.731Z,95419.91
2022-09-20T08:27:20.992Z,95428.38
2022-09-20T08:29:19.274Z,95421.91
2022-09-20T08:31:20.249Z,95427.25
2022-09-20T08:33:20.752Z,95418.31
2022-09-20T08:35:18.946Z,95409.84
2022-09-20T08:37:17.234Z,95408.97
2022-09-20T08:41:38.453Z,95411.78
2022-09-20T08:43:45.273Z,95401.81
2022-09-20T08:45:43.965Z,95393.81
2022-09-20T08:47:50.011Z,95392.19
2022-09-20T08:49:48.603Z,95386.91
2022-09-20T08:51:50.641Z,95386.84
2022-09-20T08:53:51.332Z,95384.22
2022-09-20T08:55:50.924Z,95379.94
2022-09-20T08:57:51.987Z,95391.81
2022-09-20T08:59:50.624Z,95381.81
2022-09-20T09:01:49.988Z,95385.84
2022-09-20T09:03:48.651Z,95390.34
2022-09-20T09:05:48.517Z,95385.31
2022-09-20T09:07:48.189Z,95382.72
2022-09-20T09:09:47.836Z,95385.34
2022-09-20T09:11:49.228Z,95383.19
2022-09-20T09:13:53.573Z,95376.91
2022-09-20T09:15:56.975Z,95375.22
2022-09-20T09:17:56.170Z,95375.75
2022-09-20T09:19:56.077Z,95366.88
2022-09-20T09:21:58.731Z,95359.94
2022-09-20T09:24:04.710Z,95355.06
2022-09-20T09:26:05.495Z,95353.94
2022-09-20T09:28:15.029Z,95359.63
2022-09-20T09:30:22.121Z,95348.09
2022-09-20T09:32:23.815Z,95346.59
2022-09-20T09:34:27.626Z,95350.31
2022-09-20T09:36:26.513Z,95351.41
2022-09-20T09:38:26.802Z,95356.34
2022-09-20T09:40:26.420Z,95343.09
2022-09-20T09:42:28.985Z,95337.78
2022-09-20T09:44:32.904Z,95337.41
2022-09-20T09:46:32.699Z,95337.75
2022-09-20T09:48:32.109Z,95339.75
2022-09-20T09:50:32.141Z,95346.13
2022-09-20T09:52:33.493Z,95340.94
2022-09-20T09:54:36.035Z,95350.97
2022-09-20T09:57:00.914Z,95352.69
2022-09-20T09:59:17.252Z,95344.75
2022-09-20T10:01:33.080Z,95328.97
2022-09-20T10:03:44.071Z,95329.97
2022-09-20T10:05:51.732Z,95336.06
2022-09-20T10:08:00.282Z,95329.31
2022-09-20T10:10:15.276Z,95330.00
2022-09-20T10:12:23.660Z,95338.41
2022-09-20T10:14:34.620Z,95347.59
2022-09-20T10:16:51.445Z,95331.34
2022-09-20T10:18:56.110Z,95331.00
2022-09-20T10:21:07.643Z,95324.63
2022-09-20T10:23:51.382Z,95312.25
2022-09-20T10:25:50.577Z,95314.59
2022-09-20T10:28:02.382Z,95307.22
2022-09-20T10:30:09.511Z,95315.34
2022-09-20T10:32:27.164Z,95317.75
2022-09-20T10:34:54.223Z,95306.38
2022-09-20T10:36:56.005Z,95314.19
2022-09-20T10:39:06.130Z,95311.63
2022-09-20T10:41:33.552Z,95314.69
2022-09-20T10:43:49.057Z,95315.09
2022-09-20T10:48:26.541Z,95307.78
2022-09-20T10:50:39.007Z,95320.25
2022-09-20T10:52:53.292Z,95319.94
2022-09-20T10:55:12.597Z,95323.91
2022-09-20T10:57:30.343Z,95320.09
2022-09-20T10:59:45.053Z,95316.47
2022-09-20T11:01:55.118Z,95320.50
2022-09-20T11:04:26.902Z,95308.63
2022-09-20T11:06:34.373Z,95306.38
2022-09-20T11:08:35.636Z,95308.69
2022-09-20T11:10:39.311Z,95307.69
2022-09-20T11:12:42.691Z,95300.22
2022-09-20T11:14:48.379Z,95303.09
2022-09-20T11:16:54.281Z,95296.44
2022-09-20T11:19:00.390Z,95295.03
2022-09-20T11:21:08.728Z,95294.50
2022-09-20T11:23:17.588Z,95301.53
2022-09-20T11:25:22.280Z,95294.72
2022-09-20T11:27:28.276Z,95299.88
2022-09-20T11:29:35.911Z,95294.63
2022-09-20T11:31:42.170Z,95304.03
2022-09-20T11:33:45.811Z,95295.13
2022-09-20T11:35:47.736Z,95296.34
2022-09-20T11:37:56.925Z,95304.22
2022-09-20T11:39:56.784Z,95294.97
2022-09-20T11:41:59.948Z,95295.47
2022-09-20T11:44:07.111Z,95294.50
2022-09-20T11:46:08.098Z,95284.94
2022-09-20T11:48:15.608Z,95283.44
2022-09-20T11:50:51.583Z,95288.78
2022-09-20T11:53:07.416Z,95285.50
2022-09-20T11:55:32.227Z,95280.78
2022-09-20T11:57:30.885Z,95278.28
2022-09-20T11:59:34.706Z,95273.41
2022-09-20T12:01:35.696Z,95271.22
2022-09-20T12:03:40.260Z,95269.84
2022-09-20T12:05:41.560Z,95278.00
2022-09-20T12:07:42.390Z,95275.53
2022-09-20T12:09:45.316Z,95274.09
2022-09-20T12:11:43.663Z,95284.66
2022-09-20T12:13:44.695Z,95270.19
2022-09-20T12:15:44.191Z,95270.34
2022-09-20T12:18:24.940Z,95270.97
2022-09-20T12:21:17.500Z,95267.06
2022-09-20T12:23:52.754Z,95262.09
2022-09-20T12:26:04.694Z,95266.38
2022-09-20T12:28:02.901Z,95269.16
2022-09-20T12:30:08.165Z,95259.91
2022-09-20T12:32:35.544Z,95265.81
2022-09-20T12:34:37.585Z,95257.63
2022-09-20T12:36:38.281Z,95264.78
2022-09-20T12:38:49.213Z,95271.34
2022-09-20T12:41:00.533Z,95256.19
2022-09-20T12:42:58.657Z,95268.88
2022-09-20T12:45:02.575Z,95253.81
2022-09-20T12:47:03.123Z,95263.47
2022-09-20T12:49:46.545Z,95262.00
2022-09-20T12:52:10.159Z,95252.47
2022-09-20T12:54:11.542Z,95256.28
2022-09-20T12:56:18.001Z,95263.53
2022-09-20T12:58:24.138Z,95263.16
2022-09-20T13:00:38.349Z,95263.53
2022-09-20T13:02:44.973Z,95253.06
2022-09-20T13:05:32.159Z,95260.56
2022-09-20T13:07:49.100Z,95256.47
2022-09-20T13:09:49.693Z,95254.66
2022-09-20T13:11:55.977Z,95253.97
2022-09-20T13:13:58.394Z,95257.50
2022-09-20T13:16:01.488Z,95249.38
2022-09-20T13:18:03.676Z,95246.38
2022-09-20T13:20:03.122Z,95251.38
2022-09-20T13:22:07.999Z,95257.06
2022-09-20T13:24:08.341Z,95244.09
2022-09-20T13:26:10.520Z,95247.91
2022-09-20T13:28:20.467Z,95243.97
2022-09-20T13:30:21.340Z,95249.59
2022-09-20T13:32:23.775Z,95250.41
2022-09-20T13:34:24.465Z,95248.44
2022-09-20T13:36:29.201Z,95248.91
2022-09-20T13:38:32.672Z,95256.22
2022-09-20T13:40:35.667Z,95242.44
2022-09-20T13:42:35.753Z,95240.47
2022-09-20T13:44:35.193Z,95246.56
2022-09-20T13:46:34.490Z,95249.41
2022-09-20T13:48:32.633Z,95248.44
2022-09-20T13:50:33.683Z,95249.09
2022-09-20T13:52:33.101Z,95240.47
2022-09-20T13:54:34.593Z,95243.13
2022-09-20T13:56:33.093Z,95242.47
2022-09-20T13:58:34.319Z,95255.25
2022-09-20T14:00:33.906Z,95253.09
2022-09-20T14:02:34.288Z,95253.59
2022-09-20T14:04:35.877Z,95249.78
2022-09-20T14:06:34.513Z,95247.81
2022-09-20T14:08:36.229Z,95240.50
2022-09-20T14:10:37.673Z,95244.44
2022-09-20T14:12:35.936Z,95249.78
2022-09-20T14:14:35.904Z,95243.47
2022-09-20T14:16:38.810Z,95239.66
2022-09-20T14:18:37.613Z,95240.16
2022-09-20T14:20:36.103Z,95243.13
2022-09-20T14:22:34.594Z,95253.72
2022-09-20T14:24:35.731Z,95242.31
2022-09-20T14:26:37.402Z,95245.09
2022-09-20T14:28:35.676Z,95247.78
2022-09-20T14:30:37.427Z,95244.78
2022-09-20T14:32:40.256Z,95250.72
2022-09-20T14:34:39.778Z,95248.75
2022-09-20T14:36:38.931Z,95242.13
2022-09-20T14:38:37.879Z,95246.25
2022-09-20T14:40:44.933Z,95256.34
2022-09-20T14:42:47.883Z,95245.56
2022-09-20T14:44:46.107Z,95249.22
2022-09-20T14:46:44.489Z,95248.91
2022-09-20T14:48:42.879Z,95254.53
2022-09-20T14:50:45.678Z,95261.50
2022-09-20T14:52:45.546Z,95248.91
2022-09-20T14:54:46.589Z,95258.00
2022-09-20T14:56:51.022Z,95258.69
2022-09-20T14:59:22.062Z,95267.56
2022-09-20T15:01:26.019Z,95253.31
2022-09-20T15:03:28.657Z,95258.59
2022-09-20T15:05:29.470Z,95262.38
2022-09-20T15:07:28.153Z,95261.25
2022-09-20T15:09:26.562Z,95262.88
2022-09-20T15:11:24.706Z,95260.03
2022-09-20T15:13:22.938Z,95262.00
2022-09-20T15:15:22.575Z,95254.84
2022-09-20T15:17:23.691Z,95256.81
2022-09-20T15:19:22.604Z,95254.63
2022-09-20T15:21:20.671Z,95256.53
2022-09-20T15:23:19.104Z,95261.44
2022-09-20T15:25:21.107Z,95259.63
2022-09-20T15:27:19.398Z,95259.44
2022-09-20T15:29:18.681Z,95256.34
2022-09-20T15:31:20.019Z,95268.06
2022-09-20T15:33:18.906Z,95254.69
2022-09-20T15:35:19.647Z,95258.81
2022-09-20T15:37:17.947Z,95263.94
2022-09-20T15:39:16.738Z,95257.91
2022-09-20T15:41:17.176Z,95258.91
2022-09-20T15:43:17.456Z,95265.84
2022-09-20T15:45:15.600Z,95262.47
2022-09-20T15:47:16.135Z,95257.31
2022-09-20T15:49:14.501Z,95268.94
2022-09-20T15:51:14.412Z,95265.47
2022-09-20T15:53:12.940Z,95263.53
2022-09-20T15:55:12.309Z,95265.06
2022-09-20T15:57:13.656Z,95272.50
2022-09-20T15:59:14.694Z,95270.97
2022-09-20T16:01:13.155Z,95274.09
2022-09-20T16:03:12.744Z,95276.38
2022-09-20T16:05:11.206Z,95272.22
2022-09-20T16:07:10.342Z,95273.34
2022-09-20T16:09:09.017Z,95279.31
2022-09-20T16:11:08.907Z,95272.28
2022-09-20T16:13:06.966Z,95279.44
2022-09-20T16:15:07.717Z,95280.94
2022-09-20T16:17:06.168Z,95281.44
2022-09-20T16:19:24.039Z,95285.66
2022-09-20T16:21:23.209Z,95289.00
2022-09-20T16:23:25.802Z,95283.03
2022-09-20T16:25:24.268Z,95281.91
2022-09-20T16:27:22.731Z,95281.50
2022-09-20T16:29:22.461Z,95281.50
2022-09-20T16:31:34.907Z,95280.97
2022-09-20T16:33:33.936Z,95286.56
2022-09-20T16:35:34.244Z,95294.56
2022-09-20T16:37:32.910Z,95289.31
2022-09-20T16:39:31.976Z,95292.44
2022-09-20T16:41:30.296Z,95294.28
2022-09-20T16:43:28.900Z,95296.25
2022-09-20T16:45:30.259Z,95295.41
2022-09-20T16:47:29.708Z,95300.41
2022-09-20T16:49:28.934Z,95300.16
2022-09-20T16:51:33.346Z,95296.97
2022-09-20T16:53:31.618Z,95301.72
2022-09-20T16:55:29.784Z,95305.75
2022-09-20T16:57:29.070Z,95303.97
2022-09-20T16:59:27.389Z,95310.53
2022-09-20T17:01:25.556Z,95312.09
2022-09-20T17:03:28.306Z,95317.78
2022-09-20T17:05:26.501Z,95322.81
2022-09-20T17:07:26.038Z,95317.78
2022-09-20T17:09:24.290Z,95318.47
2022-09-20T17:11:25.116Z,95323.06
2022-09-20T17:13:24.315Z,95324.72
2022-09-20T17:15:22.721Z,95325.72
2022-09-20T17:17:24.935Z,95321.22
2022-09-20T17:19:23.152Z,95323.75
2022-09-20T17:21:22.627Z,95326.66
2022-09-20T17:23:22.212Z,95329.16
2022-09-20T17:25:20.442Z,95328.19
2022-09-20T17:27:18.770Z,95336.53
2022-09-20T17:29:18.601Z,95341.09
2022-09-20T17:31:20.768Z,95331.50
2022-09-20T17:33:19.106Z,95337.78
2022-09-20T17:35:18.333Z,95334.84
2022-09-20T17:37:16.553Z,95339.00
2022-09-20T17:39:17.402Z,95337.63
2022-09-20T17:41:17.258Z,95345.78
2022-09-20T17:43:16.663Z,95342.44
2022-09-20T17:45:15.100Z,95337.19
2022-09-20T17:47:13.397Z,95342.31
2022-09-20T17:49:18.106Z,95343.88
2022-09-20T17:51:18.150Z,95346.34
2022-09-20T17:53:16.412Z,95337.72
2022-09-20T17:55:17.419Z,95346.06
2022-09-20T17:57:15.473Z,95349.94
2022-09-20T17:59:15.771Z,95350.09
2022-09-20T18:01:18.981Z,95346.03
2022-09-20T18:03:17.555Z,95354.16
2022-09-20T18:05:17.913Z,95347.25
2022-09-20T18:07:18.093Z,95346.69
2022-09-20T18:09:18.003Z,95356.38
2022-09-20T18:11:20.370Z,95356.13
2022-09-20T18:13:18.629Z,95355.00
2022-09-20T18:15:19.739Z,95352.50
2022-09-20T18:17:18.163Z,95352.66
2022-09-20T18:19:16.759Z,95356.81
2022-09-20T18:21:17.120Z,95352.91
2022-09-20T18:23:15.524Z,95359.13
2022-09-20T18:25:15.823Z,95364.81
2022-09-20T18:27:15.584Z,95363.09
2022-09-20T18:29:23.742Z,95363.91
2022-09-20T18:31:23.002Z,95367.75
2022-09-20T18:33:21.495Z,95368.03
2022-09-20T18:35:19.556Z,95371.03
2022-09-20T18:37:18.210Z,95373.81
2022-09-20T18:39:16.560Z,95366.66
2022-09-20T18:41:15.227Z,95366.66
2022-09-20T18:43:15.120Z,95366.66
2022-09-20T18:45:32.625Z,95359.84
2022-09-20T18:47:32.826Z,95364.94
2022-09-20T18:49:33.569Z,95360.50
2022-09-20T18:51:39.157Z,95359.09
2022-09-20T18:53:42.073Z,95364.88
2022-09-20T18:55:44.731Z,95368.94
2022-09-20T18:57:46.170Z,95371.13
2022-09-20T18:59:54.050Z,95369.03
2022-09-20T19:02:30.359Z,95373.31
2022-09-20T19:04:45.394Z,95361.97
2022-09-20T19:06:49.766Z,95366.44
2022-09-20T19:08:52.473Z,95367.28
2022-09-20T19:10:54.929Z,95371.13
2022-09-20T19:12:59.593Z,95360.31
2022-09-20T19:15:33.391Z,95370.59
2022-09-20T19:17:53.176Z,95367.66
2022-09-20T19:19:54.686Z,95374.53
2022-09-20T19:21:59.350Z,95369.69
2022-09-20T19:24:09.488Z,95370.00
2022-09-20T19:26:14.931Z,95372.22
2022-09-20T19:28:17.599Z,95363.75
2022-09-20T19:30:17.340Z,95374.03
2022-09-20T19:32:21.741Z,95380.81
2022-09-20T19:34:21.588Z,95375.25
2022-09-20T19:36:21.862Z,95379.22
2022-09-20T19:38:35.655Z,95387.34
2022-09-20T19:40:45.070Z,95393.00
2022-09-20T19:43:06.555Z,95387.34
2022-09-20T19:45:16.923Z,95388.06
2022-09-20T19:47:34.389Z,95380.44
2022-09-20T19:49:48.433Z,95381.16
2022-09-20T19:51:59.508Z,95380.44
2022-09-20T19:54:06.588Z,95383.06
2022-09-20T19:56:21.654Z,95389.91
2022-09-20T19:58:21.184Z,95388.75
2022-09-20T20:00:22.239Z,95388.16
2022-09-20T20:02:46.678Z,95394.88
2022-09-20T20:04:50.853Z,95389.16
2022-09-20T20:06:59.016Z,95393.66
2022-09-20T20:09:06.358Z,95390.66
2022-09-20T20:11:11.202Z,95393.16
2022-09-20T20:13:30.125Z,95393.44
2022-09-20T20:15:40.774Z,95397.56
2022-09-20T20:17:49.829Z,95402.72
2022-09-20T20:20:06.183Z,95396.88
2022-09-20T20:22:13.208Z,95405.50
2022-09-20T20:24:22.111Z,95399.31
2022-09-20T20:26:22.405Z,95397.41
2022-09-20T20:28:23.974Z,95407.94
2022-09-20T20:30:22.424Z,95400.38
2022-09-20T20:32:20.956Z,95399.16
2022-09-20T20:34:20.801Z,95400.13
2022-09-20T20:36:21.427Z,95399.16
2022-09-20T20:38:20.117Z,95408.03
2022-09-20T20:40:18.765Z,95405.66
2022-09-20T20:42:17.713Z,95405.66
2022-09-20T20:44:17.076Z,95412.94
2022-09-20T20:46:18.634Z,95407.44
2022-09-20T20:48:20.646Z,95409.63
2022-09-20T20:50:20.576Z,95406.06
2022-09-20T20:52:18.764Z,95411.94
2022-09-20T20:54:17.659Z,95409.91
2022-09-20T20:56:20.192Z,95408.47
2022-09-20T20:58:18.480Z,95413.59
2022-09-20T21:00:17.575Z,95412.88
2022-09-20T21:02:16.074Z,95421.00
2022-09-20T21:04:17.132Z,95403.44
2022-09-20T21:06:18.306Z,95405.00
2022-09-20T21:08:17.062Z,95409.06
2022-09-20T21:10:15.720Z,95400.38
2022-09-20T21:12:14.912Z,95408.25
2022-09-20T21:14:15.051Z,95404.91
2022-09-20T21:16:15.970Z,95408.25
2022-09-20T21:18:15.462Z,95410.53
2022-09-20T21:20:14.051Z,95406.34
2022-09-20T21:22:13.948Z,95407.78
2022-09-20T21:24:15.470Z,95418.66
2022-09-20T21:26:15.719Z,95411.47
2022-09-20T21:28:14.266Z,95412.19
2022-09-20T21:30:13.944Z,95410.53
2022-09-20T21:32:12.376Z,95415.88
2022-09-20T21:34:14.116Z,95417.81
2022-09-20T21:36:14.266Z,95416.63
2022-09-20T21:38:13.928Z,95417.47
2022-09-20T21:40:12.696Z,95417.22
2022-09-20T21:42:13.181Z,95413.13
2022-09-20T21:44:12.302Z,95408.84
2022-09-20T21:46:15.291Z,95409.59
2022-09-20T21:48:13.909Z,95407.56
2022-09-20T21:50:15.672Z,95412.69
2022-09-20T21:52:14.892Z,95417.47
2022-09-20T21:54:14.922Z,95409.69
2022-09-20T21:56:15.547Z,95411.13
2022-09-20T21:58:13.913Z,95412.81
2022-09-20T22:00:13.001Z,95411.72
2022-09-20T22:02:11.156Z,95407.28
2022-09-20T22:04:10.795Z,95408.47
2022-09-20T22:06:11.471Z,95401.72
2022-09-20T22:08:09.689Z,95406.97
2022-09-20T22:10:10.260Z,95392.38
2022-09-20T22:12:08.803Z,95393.56
2022-09-20T22:14:08.292Z,95395.03
2022-09-20T22:16:08.947Z,95401.22
2022-09-20T22:18:07.173Z,95400.50
2022-09-20T22:20:09.212Z,95396.78
2022-09-20T22:22:07.475Z,95393.56
2022-09-20T22:24:08.215Z,95390.72
2022-09-20T22:26:10.560Z,95396.22
2022-09-20T22:28:08.700Z,95395.97
2022-09-20T22:30:08.599Z,95400.75
2022-09-20T22:32:06.831Z,95393.00
2022-09-20T22:34:07.305Z,95395.97
2022-09-20T22:36:08.861Z,95398.22
2022-09-20T22:38:07.496Z,95404.56
2022-09-20T22:40:06.776Z,95397.63
2022-09-20T22:42:06.646Z,95405.50
2022-09-20T22:44:05.465Z,95404.66
2022-09-20T22:46:05.670Z,95404.78
2022-09-20T22:48:04.028Z,95408.44
2022-09-20T22:50:02.538Z,95404.25
2022-09-20T22:52:00.847Z,95414.06
2022-09-20T22:53:59.105Z,95409.03
2022-09-20T22:56:03.856Z,95411.66
2022-09-20T22:58:03.433Z,95415.81
2022-09-20T23:00:01.969Z,95407.69
2022-09-20T23:02:00.244Z,95410.78
2022-09-20T23:04:01.042Z,95409.34
2022-09-20T23:05:59.228Z,95416.72
2022-09-20T23:07:57.511Z,95414.09
2022-09-20T23:09:55.716Z,95402.41
2022-09-20T23:11:54.317Z,95414.34
2022-09-20T23:13:57.019Z,95411.09
2022-09-20T23:15:55.202Z,95416.34
2022-09-20T23:17:53.777Z,95412.28
2022-09-20T23:19:52.797Z,95416.31
2022-09-20T23:21:50.850Z,95413.31
2022-09-20T23:23:53.683Z,95415.59
2022-09-20T23:25:52.313Z,95416.72
2022-09-20T23:27:50.649Z,95417.09
2022-09-20T23:29:50.194Z,95407.44
2022-09-20T23:31:48.723Z,95411.50
2022-09-20T23:33:48.829Z,95409.38
2022-09-20T23:35:47.389Z,95407.72
2022-09-20T23:37:45.729Z,95405.19
2022-09-20T23:39:44.091Z,95404.81
2022-09-20T23:41:44.859Z,95415.84
2022-09-20T23:43:46.419Z,95414.53
2022-09-20T23:45:46.119Z,95409.63
2022-09-20T23:47:44.295Z,95415.19
2022-09-20T23:49:42.507Z,95408.50
2022-09-20T23:51:40.598Z,95413.31
2022-09-20T23:53:38.821Z,95413.72
2022-09-20T23:55:37.085Z,95416.59
2022-09-20T23:57:35.239Z,95419.91
2022-09-20T23:59:34.180Z,95419.69
